createdAt,value
2018-05-25T00:00:39.356Z,88.02
2018-05-25T00:03:07.371Z,88.21
2018-05-25T00:05:35.410Z,87.88
2018-05-25T00:08:03.406Z,88.18
2018-05-25T00:10:31.442Z,89.00
2018-05-25T00:12:59.582Z,89.88
2018-05-25T00:15:27.615Z,89.36
2018-05-25T00:17:56.052Z,89.38
2018-05-25T00:20:24.091Z,89.08
2018-05-25T00:22:52.106Z,89.17
2018-05-25T00:25:20.310Z,88.57
2018-05-25T00:27:48.370Z,89.05
2018-05-25T00:30:16.356Z,88.43
2018-05-25T00:32:44.447Z,88.36
2018-05-25T00:35:12.477Z,88.80
2018-05-25T00:37:40.873Z,88.70
2018-05-25T00:40:09.131Z,88.89
2018-05-25T00:42:37.156Z,89.19
2018-05-25T00:45:05.166Z,88.91
2018-05-25T00:47:33.647Z,88.97
2018-05-25T00:50:01.650Z,89.13
2018-05-25T00:52:29.684Z,89.26
2018-05-25T00:55:09.340Z,89.08
2018-05-25T00:57:37.351Z,89.16
2018-05-25T01:00:05.359Z,89.46
2018-05-25T01:02:33.563Z,89.62
2018-05-25T01:05:01.736Z,89.51
2018-05-25T01:07:29.761Z,89.49
2018-05-25T01:09:57.764Z,89.75
2018-05-25T01:12:25.883Z,89.73
2018-05-25T01:14:57.603Z,89.28
2018-05-25T01:17:25.880Z,89.40
2018-05-25T01:19:53.886Z,89.09
2018-05-25T01:22:21.907Z,89.00
2018-05-25T01:24:50.095Z,89.41
2018-05-25T01:27:18.120Z,90.00
2018-05-25T01:29:46.420Z,89.49
2018-05-25T01:32:14.512Z,89.16
2018-05-25T01:34:42.532Z,89.38
2018-05-25T01:37:10.801Z,89.27
2018-05-25T01:39:38.992Z,89.42
2018-05-25T01:42:07.010Z,89.38
2018-05-25T01:44:35.019Z,89.51
2018-05-25T01:47:03.043Z,89.53
2018-05-25T01:49:31.317Z,90.00
2018-05-25T01:51:59.339Z,90.22
2018-05-25T01:54:27.348Z,90.39
2018-05-25T01:56:55.456Z,90.23
2018-05-25T01:59:23.467Z,90.57
2018-05-25T02:01:51.491Z,90.59
2018-05-25T02:04:20.530Z,90.53
2018-05-25T02:06:48.552Z,90.35
2018-05-25T02:09:16.574Z,89.97
2018-05-25T02:11:44.798Z,90.33
2018-05-25T02:14:12.803Z,90.12
2018-05-25T02:16:40.831Z,90.05
2018-05-25T02:19:08.841Z,90.18
2018-05-25T02:21:36.851Z,90.06
2018-05-25T02:24:05.032Z,89.99
2018-05-25T02:26:33.137Z,90.19
2018-05-25T02:29:01.181Z,90.58
2018-05-25T02:31:29.288Z,90.85
2018-05-25T02:33:57.811Z,90.89
2018-05-25T02:36:26.627Z,91.01
2018-05-25T02:38:54.655Z,91.01
2018-05-25T02:41:22.834Z,90.75
2018-05-25T02:43:50.863Z,90.83
2018-05-25T02:46:19.103Z,90.80
2018-05-25T02:48:47.379Z,90.51
2018-05-25T02:51:15.474Z,90.23
2018-05-25T02:53:43.724Z,89.86
2018-05-25T02:56:11.812Z,90.02
2018-05-25T02:58:39.967Z,90.41
2018-05-25T03:01:08.251Z,90.75
2018-05-25T03:03:36.523Z,90.56
2018-05-25T03:06:04.784Z,90.42
2018-05-25T03:08:33.509Z,90.10
2018-05-25T03:11:01.555Z,89.83
2018-05-25T03:13:29.540Z,90.12
2018-05-25T03:15:57.801Z,89.89
2018-05-25T03:18:25.825Z,89.83
2018-05-25T03:20:54.044Z,90.08
2018-05-25T03:23:22.076Z,90.18
2018-05-25T03:25:50.163Z,89.98
2018-05-25T03:28:18.179Z,89.67
2018-05-25T03:30:46.436Z,90.18
2018-05-25T03:33:14.719Z,90.16
2018-05-25T03:35:42.721Z,90.13
2018-05-25T03:38:10.948Z,90.41
2018-05-25T03:40:38.959Z,90.81
2018-05-25T03:43:06.980Z,90.91
2018-05-25T03:45:35.270Z,90.53
2018-05-25T03:48:03.304Z,90.25
2018-05-25T03:50:31.315Z,90.39
2018-05-25T03:52:59.343Z,90.54
2018-05-25T03:55:27.374Z,90.68
2018-05-25T03:57:55.400Z,90.79
2018-05-25T04:00:35.257Z,91.15
2018-05-25T04:03:03.439Z,90.81
2018-05-25T04:05:31.715Z,90.79
2018-05-25T04:07:59.718Z,92.07
2018-05-25T04:10:28.775Z,91.46
2018-05-25T04:12:56.775Z,91.86
2018-05-25T04:15:24.807Z,91.29
2018-05-25T04:17:53.698Z,91.12
2018-05-25T04:20:21.719Z,90.69
2018-05-25T04:22:49.740Z,90.74
2018-05-25T04:25:17.759Z,91.41
2018-05-25T04:27:45.831Z,91.35
2018-05-25T04:30:13.861Z,91.10
2018-05-25T04:32:41.866Z,91.88
2018-05-25T04:35:09.896Z,92.31
2018-05-25T04:37:37.899Z,91.92
2018-05-25T04:40:06.043Z,91.91
2018-05-25T04:42:34.050Z,91.23
2018-05-25T04:45:02.077Z,90.48
2018-05-25T04:47:30.083Z,90.51
2018-05-25T04:49:58.121Z,90.48
2018-05-25T04:52:26.131Z,89.94
2018-05-25T04:54:57.883Z,89.54
2018-05-25T04:57:25.900Z,89.22
2018-05-25T04:59:53.922Z,89.53
2018-05-25T05:02:21.930Z,90.50
2018-05-25T05:04:49.955Z,91.10
2018-05-25T05:07:17.975Z,90.97
2018-05-25T05:09:45.999Z,90.21
2018-05-25T05:12:14.064Z,89.43
2018-05-25T05:14:42.334Z,88.68
2018-05-25T05:17:10.330Z,88.91
2018-05-25T05:19:38.357Z,88.86
2018-05-25T05:22:07.223Z,88.91
2018-05-25T05:24:35.255Z,89.27
2018-05-25T05:27:03.719Z,90.60
2018-05-25T05:29:31.862Z,89.89
2018-05-25T05:32:00.035Z,88.54
2018-05-25T05:34:28.216Z,90.61
2018-05-25T05:36:56.475Z,89.59
2018-05-25T05:39:24.595Z,89.05
2018-05-25T05:41:52.606Z,90.08
2018-05-25T05:44:20.671Z,89.39
2018-05-25T05:46:48.721Z,90.73
2018-05-25T05:49:16.720Z,91.17
2018-05-25T05:51:44.760Z,90.49
2018-05-25T05:54:12.932Z,90.61
2018-05-25T05:56:40.930Z,90.41
2018-05-25T05:59:08.940Z,89.18
2018-05-25T06:01:36.959Z,88.32
2018-05-25T06:04:04.963Z,87.28
2018-05-25T06:06:32.991Z,88.33
2018-05-25T06:09:01.016Z,87.48
2018-05-25T06:11:29.042Z,86.74
2018-05-25T06:13:57.419Z,88.04
2018-05-25T06:16:25.446Z,87.12
2018-05-25T06:18:54.226Z,86.40
2018-05-25T06:21:22.323Z,86.36
2018-05-25T06:23:50.327Z,87.25
2018-05-25T06:26:18.527Z,87.49
2018-05-25T06:28:46.808Z,87.33
2018-05-25T06:31:14.860Z,87.25
2018-05-25T06:33:42.927Z,87.60
2018-05-25T06:36:11.226Z,85.98
2018-05-25T06:38:39.311Z,86.19
2018-05-25T06:41:07.572Z,84.52
2018-05-25T06:43:36.466Z,82.97
2018-05-25T06:46:04.735Z,82.23
2018-05-25T06:48:32.744Z,83.40
2018-05-25T06:51:01.543Z,82.98
2018-05-25T06:53:29.759Z,81.89
2018-05-25T06:55:57.801Z,80.79
2018-05-25T06:58:25.836Z,81.67
2018-05-25T07:00:53.836Z,81.94
2018-05-25T07:03:21.908Z,80.79
2018-05-25T07:05:50.119Z,78.00
2018-05-25T07:08:18.135Z,77.63
2018-05-25T07:10:46.167Z,74.01
2018-05-25T07:13:14.177Z,75.06
2018-05-25T07:15:42.208Z,73.10
2018-05-25T07:18:10.228Z,74.54
2018-05-25T07:20:38.239Z,74.89
2018-05-25T07:23:06.415Z,68.72
2018-05-25T07:25:34.468Z,69.60
2018-05-25T07:28:02.513Z,69.99
2018-05-25T07:30:30.526Z,66.05
2018-05-25T07:32:58.613Z,71.71
2018-05-25T07:35:26.784Z,66.33
2018-05-25T07:37:54.808Z,72.04
2018-05-25T07:40:23.355Z,75.87
2018-05-25T07:42:51.491Z,76.54
2018-05-25T07:45:19.512Z,76.08
2018-05-25T07:47:47.547Z,75.40
2018-05-25T07:50:15.567Z,77.30
2018-05-25T07:52:43.679Z,77.18
2018-05-25T07:55:11.703Z,76.57
2018-05-25T07:57:39.840Z,74.79
2018-05-25T08:00:07.815Z,76.58
2018-05-25T08:02:35.848Z,76.04
2018-05-25T08:05:04.420Z,75.49
2018-05-25T08:07:32.459Z,75.50
2018-05-25T08:10:00.464Z,74.82
2018-05-25T08:12:28.659Z,74.37
2018-05-25T08:14:56.936Z,74.38
2018-05-25T08:17:24.975Z,71.37
2018-05-25T08:19:53.008Z,68.12
2018-05-25T08:22:21.032Z,72.21
2018-05-25T08:24:49.044Z,71.90
2018-05-25T08:27:17.070Z,69.98
2018-05-25T08:29:45.275Z,69.20
2018-05-25T08:32:13.308Z,64.79
2018-05-25T08:34:41.391Z,62.67
2018-05-25T08:37:09.414Z,62.93
2018-05-25T08:39:37.424Z,63.20
2018-05-25T08:42:05.463Z,62.73
2018-05-25T08:44:33.477Z,63.77
2018-05-25T08:47:01.572Z,60.16
2018-05-25T08:49:29.940Z,61.04
2018-05-25T08:51:58.300Z,63.23
2018-05-25T08:54:26.307Z,64.00
2018-05-25T08:56:54.348Z,61.91
2018-05-25T08:59:23.350Z,60.53
2018-05-25T09:01:51.440Z,56.97
2018-05-25T09:04:19.687Z,58.59
2018-05-25T09:06:48.647Z,61.31
2018-05-25T09:09:16.903Z,64.15
2018-05-25T09:11:44.894Z,63.43
2018-05-25T09:14:13.099Z,62.06
2018-05-25T09:16:41.267Z,64.29
2018-05-25T09:19:09.295Z,62.98
2018-05-25T09:21:37.361Z,59.71
2018-05-25T09:24:05.368Z,61.21
2018-05-25T09:26:33.366Z,61.72
2018-05-25T09:29:01.392Z,62.84
2018-05-25T09:31:29.458Z,60.88
2018-05-25T09:33:57.768Z,58.71
2018-05-25T09:36:25.803Z,57.77
2018-05-25T09:38:53.910Z,58.07
2018-05-25T09:41:21.919Z,64.50
2018-05-25T09:43:50.048Z,65.03
2018-05-25T09:46:18.410Z,61.94
2018-05-25T09:48:46.730Z,58.75
2018-05-25T09:51:14.734Z,56.25
2018-05-25T09:53:43.051Z,57.92
2018-05-25T09:56:11.111Z,53.89
2018-05-25T09:58:39.227Z,48.37
2018-05-25T10:01:07.251Z,56.94
2018-05-25T10:03:35.285Z,59.20
2018-05-25T10:06:03.417Z,57.71
2018-05-25T10:08:31.797Z,54.17
2018-05-25T10:10:59.799Z,60.17
2018-05-25T10:13:27.824Z,57.55
2018-05-25T10:15:55.840Z,56.09
2018-05-25T10:18:23.867Z,52.82
2018-05-25T10:20:51.885Z,51.44
2018-05-25T10:23:20.111Z,50.51
2018-05-25T10:25:48.291Z,52.20
2018-05-25T10:28:16.308Z,57.41
2018-05-25T10:30:44.419Z,53.18
2018-05-25T10:33:12.620Z,53.42
2018-05-25T10:35:40.643Z,48.10
2018-05-25T10:38:08.647Z,53.85
2018-05-25T10:40:37.121Z,54.52
2018-05-25T10:43:05.395Z,47.77
2018-05-25T10:45:33.438Z,55.17
2018-05-25T10:48:01.588Z,55.64
2018-05-25T10:50:29.615Z,52.74
2018-05-25T10:52:57.629Z,49.56
2018-05-25T10:55:25.758Z,47.25
2018-05-25T10:57:53.923Z,46.30
2018-05-25T11:00:22.078Z,48.54
2018-05-25T11:02:50.079Z,54.49
2018-05-25T11:05:18.110Z,50.58
2018-05-25T11:07:46.303Z,51.86
2018-05-25T11:10:14.583Z,54.88
2018-05-25T11:12:42.747Z,54.09
2018-05-25T11:15:10.775Z,58.90
2018-05-25T11:17:38.985Z,59.51
2018-05-25T11:20:06.991Z,60.20
2018-05-25T11:22:35.064Z,57.55
2018-05-25T11:25:03.073Z,57.29
2018-05-25T11:27:31.279Z,56.74
2018-05-25T11:29:59.359Z,57.16
2018-05-25T11:32:27.363Z,58.52
2018-05-25T11:34:56.838Z,58.16
2018-05-25T11:37:24.847Z,58.02
2018-05-25T11:39:52.867Z,57.55
2018-05-25T11:42:20.884Z,54.68
2018-05-25T11:44:48.898Z,56.11
2018-05-25T11:47:16.911Z,57.50
2018-05-25T11:49:45.159Z,57.26
2018-05-25T11:52:13.167Z,56.80
2018-05-25T11:54:41.192Z,58.03
2018-05-25T11:57:09.188Z,56.86
2018-05-25T11:59:37.203Z,54.80
2018-05-25T12:02:05.197Z,57.57
2018-05-25T12:04:33.205Z,56.47
2018-05-25T12:07:01.227Z,55.73
2018-05-25T12:09:29.223Z,54.75
2018-05-25T12:11:57.392Z,54.30
2018-05-25T12:14:26.088Z,55.65
2018-05-25T12:16:54.424Z,54.73
2018-05-25T12:19:22.398Z,53.94
2018-05-25T12:21:50.588Z,55.30
2018-05-25T12:24:18.629Z,54.71
2018-05-25T12:26:46.635Z,52.63
2018-05-25T12:29:15.307Z,52.95
2018-05-25T12:31:43.324Z,52.40
2018-05-25T12:34:11.323Z,52.81
2018-05-25T12:36:39.727Z,52.78
2018-05-25T12:39:07.740Z,50.30
2018-05-25T12:41:35.887Z,49.52
2018-05-25T12:44:03.884Z,51.69
2018-05-25T12:46:31.906Z,51.07
2018-05-25T12:49:00.394Z,49.97
2018-05-25T12:51:28.559Z,48.61
2018-05-25T12:53:56.567Z,50.82
2018-05-25T12:56:24.579Z,51.03
2018-05-25T12:58:52.784Z,51.44
2018-05-25T13:01:20.803Z,52.00
2018-05-25T13:03:49.516Z,50.75
2018-05-25T13:06:17.819Z,49.62
2018-05-25T13:08:45.904Z,48.52
2018-05-25T13:11:14.366Z,48.50
2018-05-25T13:13:42.379Z,48.86
2018-05-25T13:16:10.403Z,47.71
2018-05-25T13:18:38.397Z,46.96
2018-05-25T13:21:06.415Z,49.00
2018-05-25T13:23:35.101Z,48.41
2018-05-25T13:26:03.137Z,46.78
2018-05-25T13:28:31.166Z,47.50
2018-05-25T13:30:59.199Z,47.22
2018-05-25T13:33:27.199Z,46.06
2018-05-25T13:35:55.368Z,47.36
2018-05-25T13:38:23.608Z,47.87
2018-05-25T13:40:51.844Z,50.47
2018-05-25T13:43:20.107Z,49.43
2018-05-25T13:45:48.240Z,47.75
2018-05-25T13:48:16.241Z,48.36
2018-05-25T13:50:44.234Z,47.49
2018-05-25T13:53:12.251Z,47.50
2018-05-25T13:55:40.803Z,47.94
2018-05-25T13:58:09.049Z,48.25
2018-05-25T14:00:37.251Z,47.28
2018-05-25T14:03:05.290Z,48.14
2018-05-25T14:05:33.273Z,47.50
2018-05-25T14:08:01.551Z,49.05
2018-05-25T14:10:29.549Z,47.02
2018-05-25T14:12:57.570Z,48.89
2018-05-25T14:15:25.568Z,48.58
2018-05-25T14:17:53.737Z,46.76
2018-05-25T14:20:22.369Z,46.95
2018-05-25T14:22:50.627Z,45.06
2018-05-25T14:25:18.652Z,43.91
2018-05-25T14:27:46.693Z,44.22
2018-05-25T14:30:14.710Z,44.69
2018-05-25T14:32:42.726Z,44.41
2018-05-25T14:35:11.040Z,46.02
2018-05-25T14:37:39.063Z,46.84
2018-05-25T14:40:07.054Z,46.09
2018-05-25T14:42:35.073Z,44.25
2018-05-25T14:45:03.967Z,43.46
2018-05-25T14:47:32.209Z,45.38
2018-05-25T14:50:00.477Z,45.27
2018-05-25T14:52:28.501Z,46.08
2018-05-25T14:54:56.718Z,45.84
2018-05-25T14:57:24.714Z,45.16
2018-05-25T14:59:52.875Z,45.12
2018-05-25T15:02:20.879Z,44.65
2018-05-25T15:04:48.973Z,45.62
2018-05-25T15:07:16.981Z,45.11
2018-05-25T15:09:45.020Z,45.54
2018-05-25T15:12:13.004Z,45.72
2018-05-25T15:14:40.999Z,46.61
2018-05-25T15:17:09.024Z,46.00
2018-05-25T15:19:37.032Z,45.98
2018-05-25T15:22:05.043Z,46.24
2018-05-25T15:24:33.045Z,46.27
2018-05-25T15:27:01.101Z,47.61
2018-05-25T15:29:29.143Z,46.63
2018-05-25T15:31:57.129Z,46.64
2018-05-25T15:34:25.163Z,46.07
2018-05-25T15:36:53.945Z,47.33
2018-05-25T15:39:21.959Z,47.44
2018-05-25T15:41:49.969Z,48.35
2018-05-25T15:46:53.259Z,45.95
2018-05-25T15:49:21.288Z,45.94
2018-05-25T15:51:49.291Z,46.31
2018-05-25T15:54:17.436Z,45.49
2018-05-25T15:56:45.908Z,45.98
2018-05-25T15:59:13.936Z,45.75
2018-05-25T16:01:41.993Z,45.04
2018-05-25T16:04:10.120Z,46.14
2018-05-25T16:06:38.188Z,46.07
2018-05-25T16:09:06.354Z,46.72
2018-05-25T16:11:34.451Z,47.66
2018-05-25T16:14:02.542Z,46.88
2018-05-25T16:16:30.639Z,46.84
2018-05-25T16:18:58.762Z,46.49
2018-05-25T16:21:26.901Z,45.97
2018-05-25T16:23:55.942Z,46.11
2018-05-25T16:26:24.404Z,45.64
2018-05-25T16:28:52.651Z,43.86
2018-05-25T16:31:20.844Z,44.87
2018-05-25T16:33:48.869Z,46.04
2018-05-25T16:36:16.910Z,46.55
2018-05-25T16:38:45.025Z,45.39
2018-05-25T16:41:12.990Z,45.69
2018-05-25T16:43:41.010Z,46.21
2018-05-25T16:46:09.024Z,46.12
2018-05-25T16:48:37.048Z,46.46
2018-05-25T16:51:05.071Z,45.71
2018-05-25T16:53:33.091Z,45.31
2018-05-25T16:56:01.140Z,45.59
2018-05-25T16:58:29.132Z,45.68
2018-05-25T17:00:57.144Z,45.48
2018-05-25T17:03:25.160Z,46.51
2018-05-25T17:05:53.985Z,44.14
2018-05-25T17:08:21.974Z,46.77
2018-05-25T17:10:50.184Z,46.42
2018-05-25T17:13:18.179Z,46.48
2018-05-25T17:15:46.197Z,46.72
2018-05-25T17:18:14.789Z,46.26
2018-05-25T17:20:42.796Z,46.09
2018-05-25T17:23:10.820Z,46.06
2018-05-25T17:25:38.992Z,45.66
2018-05-25T17:28:07.263Z,46.49
2018-05-25T17:30:35.749Z,46.07
2018-05-25T17:33:03.760Z,46.75
2018-05-25T17:35:32.251Z,45.70
2018-05-25T17:38:00.265Z,46.83
2018-05-25T17:40:28.291Z,45.97
2018-05-25T17:42:56.319Z,46.84
2018-05-25T17:45:24.436Z,46.50
2018-05-25T17:47:52.557Z,47.85
2018-05-25T17:50:20.559Z,51.25
2018-05-25T17:52:48.563Z,52.42
2018-05-25T17:55:16.593Z,52.47
2018-05-25T17:57:44.599Z,53.00
2018-05-25T18:00:12.611Z,52.77
2018-05-25T18:02:40.968Z,53.24
2018-05-25T18:05:08.983Z,53.48
2018-05-25T18:07:37.239Z,54.25
2018-05-25T18:10:05.283Z,54.72
2018-05-25T18:12:33.795Z,55.07
2018-05-25T18:15:02.056Z,55.43
2018-05-25T18:17:30.079Z,55.75
2018-05-25T18:19:58.111Z,56.94
2018-05-25T18:22:26.128Z,56.70
2018-05-25T18:24:57.431Z,57.01
2018-05-25T18:27:25.427Z,57.55
2018-05-25T18:29:53.451Z,57.75
2018-05-25T18:32:21.463Z,58.21
2018-05-25T18:34:49.908Z,58.67
2018-05-25T18:37:17.911Z,58.69
2018-05-25T18:39:45.925Z,59.33
2018-05-25T18:42:13.924Z,60.06
2018-05-25T18:44:42.081Z,59.79
2018-05-25T18:47:10.079Z,60.46
2018-05-25T18:49:38.093Z,60.85
2018-05-25T18:52:06.099Z,60.98
2018-05-25T18:54:34.259Z,61.63
2018-05-25T18:57:02.272Z,61.46
2018-05-25T18:59:30.279Z,61.55
2018-05-25T19:01:58.291Z,62.08
2018-05-25T19:04:26.322Z,63.16
2018-05-25T19:06:54.340Z,63.10
2018-05-25T19:09:22.603Z,63.55
2018-05-25T19:11:50.875Z,64.03
2018-05-25T19:14:18.893Z,63.92
2018-05-25T19:16:46.888Z,64.62
2018-05-25T19:19:15.196Z,65.03
2018-05-25T19:21:43.205Z,66.15
2018-05-25T19:24:11.235Z,67.02
2018-05-25T19:26:39.262Z,66.11
2018-05-25T19:29:07.293Z,66.32
2018-05-25T19:31:36.304Z,66.89
2018-05-25T19:34:04.315Z,66.82
2018-05-25T19:36:32.608Z,66.88
2018-05-25T19:39:00.615Z,67.53
2018-05-25T19:41:28.743Z,67.87
2018-05-25T19:43:56.967Z,68.15
2018-05-25T19:46:25.008Z,68.26
2018-05-25T19:48:53.015Z,68.56
2018-05-25T19:51:21.898Z,68.80
2018-05-25T19:53:49.902Z,69.05
2018-05-25T19:56:18.094Z,69.03
2018-05-25T19:58:46.106Z,68.40
2018-05-25T20:01:14.229Z,68.86
2018-05-25T20:03:42.272Z,68.76
2018-05-25T20:06:10.296Z,68.96
2018-05-25T20:08:38.487Z,68.54
2018-05-25T20:11:06.504Z,68.46
2018-05-25T20:13:34.694Z,68.48
2018-05-25T20:16:02.869Z,68.93
2018-05-25T20:18:30.880Z,68.73
2018-05-25T20:20:58.899Z,68.71
2018-05-25T20:23:26.911Z,68.76
2018-05-25T20:25:55.055Z,69.35
2018-05-25T20:28:23.065Z,69.37
2018-05-25T20:30:51.191Z,69.17
2018-05-25T20:33:19.601Z,69.44
2018-05-25T20:35:47.623Z,69.19
2018-05-25T20:38:15.754Z,69.18
2018-05-25T20:40:43.771Z,69.44
2018-05-25T20:43:12.028Z,70.05
2018-05-25T20:45:40.329Z,70.37
2018-05-25T20:48:08.339Z,70.46
2018-05-25T20:50:36.360Z,70.73
2018-05-25T20:53:04.405Z,70.66
2018-05-25T20:55:32.616Z,70.46
2018-05-25T20:58:00.620Z,70.13
2018-05-25T21:00:28.713Z,70.07
2018-05-25T21:02:57.240Z,70.36
2018-05-25T21:05:25.434Z,70.46
2018-05-25T21:07:53.439Z,70.50
2018-05-25T21:10:21.455Z,70.52
2018-05-25T21:12:49.627Z,70.79
2018-05-25T21:15:17.752Z,70.86
2018-05-25T21:17:45.774Z,70.73
2018-05-25T21:20:13.752Z,70.92
2018-05-25T21:22:41.766Z,71.37
2018-05-25T21:25:10.271Z,70.90
2018-05-25T21:27:38.326Z,71.83
2018-05-25T21:30:06.346Z,71.22
2018-05-25T21:32:34.341Z,71.56
2018-05-25T21:35:02.341Z,71.79
2018-05-25T21:37:30.381Z,71.49
2018-05-25T21:39:58.364Z,71.51
2018-05-25T21:42:26.375Z,71.93
2018-05-25T21:44:56.000Z,72.00
2018-05-25T21:47:24.174Z,72.13
2018-05-25T21:49:52.564Z,72.21
2018-05-25T21:52:20.569Z,72.37
2018-05-25T21:54:48.596Z,72.70
2018-05-25T21:57:16.617Z,72.74
2018-05-25T21:59:44.612Z,72.43
2018-05-25T22:02:12.623Z,72.87
2018-05-25T22:04:40.803Z,73.32
2018-05-25T22:07:08.986Z,72.73
2018-05-25T22:09:37.699Z,72.85
2018-05-25T22:12:05.716Z,73.30
2018-05-25T22:14:33.895Z,73.39
2018-05-25T22:17:02.028Z,73.51
2018-05-25T22:19:30.027Z,73.74
2018-05-25T22:21:58.063Z,74.00
2018-05-25T22:24:26.084Z,74.21
2018-05-25T22:26:54.099Z,73.42
2018-05-25T22:29:22.087Z,74.00
2018-05-25T22:31:50.107Z,74.21
2018-05-25T22:34:18.335Z,74.39
2018-05-25T22:36:46.352Z,74.73
2018-05-25T22:39:14.350Z,74.63
2018-05-25T22:41:42.355Z,74.73
2018-05-25T22:44:21.967Z,74.64
2018-05-25T22:47:01.880Z,74.62
2018-05-25T22:49:41.761Z,75.11
2018-05-25T22:52:21.894Z,74.93
2018-05-25T22:54:55.418Z,74.77
2018-05-25T22:57:23.618Z,75.01
2018-05-25T22:59:51.880Z,75.27
2018-05-25T23:02:19.903Z,75.50
2018-05-25T23:04:48.090Z,75.36
2018-05-25T23:07:16.094Z,75.93
2018-05-25T23:09:44.127Z,76.03
2018-05-25T23:12:12.145Z,76.05
2018-05-25T23:14:40.168Z,76.80
2018-05-25T23:17:08.208Z,77.31
2018-05-25T23:19:36.215Z,77.96
2018-05-25T23:22:04.222Z,78.43
2018-05-25T23:24:32.222Z,78.28
2018-05-25T23:27:00.248Z,77.60
2018-05-25T23:29:28.368Z,77.93
2018-05-25T23:31:56.389Z,78.15
2018-05-25T23:34:24.381Z,77.92
2018-05-25T23:36:52.415Z,77.75
2018-05-25T23:39:20.406Z,78.28
2018-05-25T23:41:48.411Z,79.30
2018-05-25T23:44:16.444Z,79.35
2018-05-25T23:46:44.611Z,79.54
2018-05-25T23:49:12.806Z,79.37
2018-05-25T23:51:40.810Z,79.94
2018-05-25T23:54:09.023Z,80.15
2018-05-25T23:56:37.238Z,79.69
2018-05-25T23:59:06.031Z,79.65
